sensor_id;sensor_type;location;lat;lon;timestamp;temperature;humidity
21592;DHT22;10958;50.892;3.992;2023-08-31T00:00:47;13.70;99.90
21592;DHT22;10958;50.892;3.992;2023-08-31T00:03:13;13.80;99.90
21592;DHT22;10958;50.892;3.992;2023-08-31T00:05:43;13.80;99.90
21592;DHT22;10958;50.892;3.992;2023-08-31T00:08:12;13.90;99.90
21592;DHT22;10958;50.892;3.992;2023-08-31T00:10:38;13.90;99.90
21592;DHT22;10958;50.892;3.992;2023-08-31T00:13:04;13.90;99.90
21592;DHT22;10958;50.892;3.992;2023-08-31T00:15:33;13.90;99.90
21592;DHT22;10958;50.892;3.992;2023-08-31T00:18:00;14.00;99.90
21592;DHT22;10958;50.892;3.992;2023-08-31T00:20:30;14.10;99.90
21592;DHT22;10958;50.892;3.992;2023-08-31T00:23:01;14.20;99.90
21592;DHT22;10958;50.892;3.992;2023-08-31T00:25:26;14.20;99.90
21592;DHT22;10958;50.892;3.992;2023-08-31T00:27:53;14.40;99.90
21592;DHT22;10958;50.892;3.992;2023-08-31T00:30:23;14.50;99.90
21592;DHT22;10958;50.892;3.992;2023-08-31T00:32:54;14.40;99.90
21592;DHT22;10958;50.892;3.992;2023-08-31T00:35:23;14.50;99.90
21592;DHT22;10958;50.892;3.992;2023-08-31T00:37:49;14.40;99.90
21592;DHT22;10958;50.892;3.992;2023-08-31T00:40:16;14.30;99.90
21592;DHT22;10958;50.892;3.992;2023-08-31T00:42:44;14.20;99.90
21592;DHT22;10958;50.892;3.992;2023-08-31T00:45:12;14.30;99.90
21592;DHT22;10958;50.892;3.992;2023-08-31T00:47:38;14.20;99.90
21592;DHT22;10958;50.892;3.992;2023-08-31T00:50:06;14.10;99.90
21592;DHT22;10958;50.892;3.992;2023-08-31T00:52:33;13.80;99.90
21592;DHT22;10958;50.892;3.992;2023-08-31T00:55:04;13.80;99.90
21592;DHT22;10958;50.892;3.992;2023-08-31T00:57:30;13.90;99.90
21592;DHT22;10958;50.892;3.992;2023-08-31T00:59:56;13.80;99.90
21592;DHT22;10958;50.892;3.992;2023-08-31T01:02:37;13.90;99.90
21592;DHT22;10958;50.892;3.992;2023-08-31T01:13:06;13.70;99.90
21592;DHT22;10958;50.892;3.992;2023-08-31T01:15:38;13.80;99.90
21592;DHT22;10958;50.892;3.992;2023-08-31T01:18:06;13.60;99.90
21592;DHT22;10958;50.892;3.992;2023-08-31T01:21:17;13.40;99.90
21592;DHT22;10958;50.892;3.992;2023-08-31T01:26:13;13.40;99.90
21592;DHT22;10958;50.892;3.992;2023-08-31T01:28:39;13.40;99.90
21592;DHT22;10958;50.892;3.992;2023-08-31T01:31:05;13.40;99.90
21592;DHT22;10958;50.892;3.992;2023-08-31T01:33:31;13.40;99.90
21592;DHT22;10958;50.892;3.992;2023-08-31T01:36:01;13.40;99.90
21592;DHT22;10958;50.892;3.992;2023-08-31T01:38:30;13.40;99.90
21592;DHT22;10958;50.892;3.992;2023-08-31T01:41:03;13.20;99.90
21592;DHT22;10958;50.892;3.992;2023-08-31T01:43:31;13.10;99.90
21592;DHT22;10958;50.892;3.992;2023-08-31T01:45:59;13.20;99.90
21592;DHT22;10958;50.892;3.992;2023-08-31T01:48:25;13.10;99.90
21592;DHT22;10958;50.892;3.992;2023-08-31T01:50:53;13.10;99.90
21592;DHT22;10958;50.892;3.992;2023-08-31T01:53:18;13.10;99.90
21592;DHT22;10958;50.892;3.992;2023-08-31T01:55:50;13.20;99.90
21592;DHT22;10958;50.892;3.992;2023-08-31T01:58:18;13.30;99.90
21592;DHT22;10958;50.892;3.992;2023-08-31T02:00:44;13.40;99.90
21592;DHT22;10958;50.892;3.992;2023-08-31T02:03:10;13.40;99.90
21592;DHT22;10958;50.892;3.992;2023-08-31T02:05:36;13.30;99.90
21592;DHT22;10958;50.892;3.992;2023-08-31T02:08:02;13.50;99.90
21592;DHT22;10958;50.892;3.992;2023-08-31T02:10:28;13.50;99.90
21592;DHT22;10958;50.892;3.992;2023-08-31T02:12:55;13.50;99.90
21592;DHT22;10958;50.892;3.992;2023-08-31T02:15:21;13.50;99.90
21592;DHT22;10958;50.892;3.992;2023-08-31T02:17:49;13.30;99.90
21592;DHT22;10958;50.892;3.992;2023-08-31T02:20:17;13.40;99.90
21592;DHT22;10958;50.892;3.992;2023-08-31T02:22:45;13.40;99.90
21592;DHT22;10958;50.892;3.992;2023-08-31T02:25:11;13.40;99.90
21592;DHT22;10958;50.892;3.992;2023-08-31T02:27:38;13.30;99.90
21592;DHT22;10958;50.892;3.992;2023-08-31T02:30:08;13.30;99.90
21592;DHT22;10958;50.892;3.992;2023-08-31T02:32:34;13.30;99.90
21592;DHT22;10958;50.892;3.992;2023-08-31T02:35:00;13.10;99.90
21592;DHT22;10958;50.892;3.992;2023-08-31T02:37:26;13.10;99.90
21592;DHT22;10958;50.892;3.992;2023-08-31T02:39:51;13.10;99.90
21592;DHT22;10958;50.892;3.992;2023-08-31T02:42:17;13.20;99.90
21592;DHT22;10958;50.892;3.992;2023-08-31T02:44:45;13.20;99.90
21592;DHT22;10958;50.892;3.992;2023-08-31T02:47:11;13.30;99.90
21592;DHT22;10958;50.892;3.992;2023-08-31T02:49:36;13.30;99.90
21592;DHT22;10958;50.892;3.992;2023-08-31T02:52:04;13.20;99.90
21592;DHT22;10958;50.892;3.992;2023-08-31T02:54:32;13.20;99.90
21592;DHT22;10958;50.892;3.992;2023-08-31T02:56:58;13.30;99.90
21592;DHT22;10958;50.892;3.992;2023-08-31T02:59:24;13.40;99.90
21592;DHT22;10958;50.892;3.992;2023-08-31T03:01:50;13.30;99.90
21592;DHT22;10958;50.892;3.992;2023-08-31T03:04:16;13.30;99.90
21592;DHT22;10958;50.892;3.992;2023-08-31T03:06:43;13.20;99.90
21592;DHT22;10958;50.892;3.992;2023-08-31T03:09:11;13.30;99.90
21592;DHT22;10958;50.892;3.992;2023-08-31T03:11:37;13.40;99.90
21592;DHT22;10958;50.892;3.992;2023-08-31T03:14:02;13.50;99.90
21592;DHT22;10958;50.892;3.992;2023-08-31T03:16:28;13.40;99.90
21592;DHT22;10958;50.892;3.992;2023-08-31T03:18:54;13.40;99.90
21592;DHT22;10958;50.892;3.992;2023-08-31T03:21:20;13.30;99.90
21592;DHT22;10958;50.892;3.992;2023-08-31T03:23:46;13.40;99.90
21592;DHT22;10958;50.892;3.992;2023-08-31T03:26:11;13.30;99.90
21592;DHT22;10958;50.892;3.992;2023-08-31T03:28:38;13.30;99.90
21592;DHT22;10958;50.892;3.992;2023-08-31T03:31:06;13.20;99.90
21592;DHT22;10958;50.892;3.992;2023-08-31T03:33:31;13.20;99.90
21592;DHT22;10958;50.892;3.992;2023-08-31T03:36:01;13.10;99.90
21592;DHT22;10958;50.892;3.992;2023-08-31T03:38:31;13.10;99.90
21592;DHT22;10958;50.892;3.992;2023-08-31T03:41:02;13.20;99.90
21592;DHT22;10958;50.892;3.992;2023-08-31T03:43:28;13.20;99.90
21592;DHT22;10958;50.892;3.992;2023-08-31T03:45:56;13.40;99.90
21592;DHT22;10958;50.892;3.992;2023-08-31T03:48:23;13.20;99.90
21592;DHT22;10958;50.892;3.992;2023-08-31T03:50:50;13.20;99.90
21592;DHT22;10958;50.892;3.992;2023-08-31T03:53:19;13.10;99.90
21592;DHT22;10958;50.892;3.992;2023-08-31T03:55:44;13.10;99.90
21592;DHT22;10958;50.892;3.992;2023-08-31T03:58:10;13.20;99.90
21592;DHT22;10958;50.892;3.992;2023-08-31T04:00:37;13.10;99.90
21592;DHT22;10958;50.892;3.992;2023-08-31T04:03:03;13.00;99.90
21592;DHT22;10958;50.892;3.992;2023-08-31T04:05:32;13.10;99.90
21592;DHT22;10958;50.892;3.992;2023-08-31T04:07:59;13.10;99.90
21592;DHT22;10958;50.892;3.992;2023-08-31T04:10:28;13.20;99.90
21592;DHT22;10958;50.892;3.992;2023-08-31T04:12:55;13.10;99.90
21592;DHT22;10958;50.892;3.992;2023-08-31T04:15:21;13.10;99.90
21592;DHT22;10958;50.892;3.992;2023-08-31T04:17:46;13.10;99.90
21592;DHT22;10958;50.892;3.992;2023-08-31T04:20:15;13.10;99.90
21592;DHT22;10958;50.892;3.992;2023-08-31T04:22:41;13.10;99.90
21592;DHT22;10958;50.892;3.992;2023-08-31T04:25:07;13.00;99.90
21592;DHT22;10958;50.892;3.992;2023-08-31T04:27:35;12.90;99.90
21592;DHT22;10958;50.892;3.992;2023-08-31T04:30:07;13.00;99.90
21592;DHT22;10958;50.892;3.992;2023-08-31T04:32:35;12.90;99.90
21592;DHT22;10958;50.892;3.992;2023-08-31T04:35:03;13.00;99.90
21592;DHT22;10958;50.892;3.992;2023-08-31T04:37:31;13.00;99.90
21592;DHT22;10958;50.892;3.992;2023-08-31T04:39:57;13.00;99.90
21592;DHT22;10958;50.892;3.992;2023-08-31T04:42:26;12.90;99.90
21592;DHT22;10958;50.892;3.992;2023-08-31T04:44:52;12.80;99.90
21592;DHT22;10958;50.892;3.992;2023-08-31T04:47:17;12.80;99.90
21592;DHT22;10958;50.892;3.992;2023-08-31T04:49:43;12.80;99.90
21592;DHT22;10958;50.892;3.992;2023-08-31T04:52:11;12.80;99.90
21592;DHT22;10958;50.892;3.992;2023-08-31T04:54:37;12.90;99.90
21592;DHT22;10958;50.892;3.992;2023-08-31T04:57:03;12.90;99.90
21592;DHT22;10958;50.892;3.992;2023-08-31T04:59:28;12.90;99.90
21592;DHT22;10958;50.892;3.992;2023-08-31T05:01:56;12.80;99.90
21592;DHT22;10958;50.892;3.992;2023-08-31T05:04:22;12.80;99.90
21592;DHT22;10958;50.892;3.992;2023-08-31T05:06:49;12.80;99.90
21592;DHT22;10958;50.892;3.992;2023-08-31T05:09:14;12.80;99.90
21592;DHT22;10958;50.892;3.992;2023-08-31T05:11:40;12.80;99.90
21592;DHT22;10958;50.892;3.992;2023-08-31T05:14:08;12.90;99.90
21592;DHT22;10958;50.892;3.992;2023-08-31T05:16:36;12.80;99.90
21592;DHT22;10958;50.892;3.992;2023-08-31T05:19:04;12.80;99.90
21592;DHT22;10958;50.892;3.992;2023-08-31T05:21:30;12.90;99.90
21592;DHT22;10958;50.892;3.992;2023-08-31T05:23:56;12.80;99.90
21592;DHT22;10958;50.892;3.992;2023-08-31T05:26:22;12.80;99.90
21592;DHT22;10958;50.892;3.992;2023-08-31T05:28:48;12.80;99.90
21592;DHT22;10958;50.892;3.992;2023-08-31T05:31:15;12.90;99.90
21592;DHT22;10958;50.892;3.992;2023-08-31T05:33:41;12.80;99.90
21592;DHT22;10958;50.892;3.992;2023-08-31T05:36:07;12.80;99.90
21592;DHT22;10958;50.892;3.992;2023-08-31T05:38:32;12.80;99.90
21592;DHT22;10958;50.892;3.992;2023-08-31T05:41:08;12.80;99.90
21592;DHT22;10958;50.892;3.992;2023-08-31T05:43:37;12.80;99.90
21592;DHT22;10958;50.892;3.992;2023-08-31T05:46:06;12.80;99.90
21592;DHT22;10958;50.892;3.992;2023-08-31T05:48:32;12.80;99.90
21592;DHT22;10958;50.892;3.992;2023-08-31T05:51:00;12.80;99.90
21592;DHT22;10958;50.892;3.992;2023-08-31T05:53:26;12.90;99.90
21592;DHT22;10958;50.892;3.992;2023-08-31T05:55:54;12.90;99.90
21592;DHT22;10958;50.892;3.992;2023-08-31T05:58:22;12.90;99.90
21592;DHT22;10958;50.892;3.992;2023-08-31T06:00:49;12.90;99.90
21592;DHT22;10958;50.892;3.992;2023-08-31T06:03:16;13.00;99.90
21592;DHT22;10958;50.892;3.992;2023-08-31T06:05:45;13.10;99.90
21592;DHT22;10958;50.892;3.992;2023-08-31T06:08:13;13.00;99.90
21592;DHT22;10958;50.892;3.992;2023-08-31T06:10:38;13.10;99.90
21592;DHT22;10958;50.892;3.992;2023-08-31T06:13:04;13.30;99.90
21592;DHT22;10958;50.892;3.992;2023-08-31T06:15:32;13.30;99.90
21592;DHT22;10958;50.892;3.992;2023-08-31T06:17:58;13.40;99.90
21592;DHT22;10958;50.892;3.992;2023-08-31T06:20:24;13.30;99.90
21592;DHT22;10958;50.892;3.992;2023-08-31T06:22:49;13.40;99.90
21592;DHT22;10958;50.892;3.992;2023-08-31T06:25:15;13.50;99.90
21592;DHT22;10958;50.892;3.992;2023-08-31T06:27:44;13.70;99.90
21592;DHT22;10958;50.892;3.992;2023-08-31T06:30:12;14.20;99.90
21592;DHT22;10958;50.892;3.992;2023-08-31T06:32:46;14.80;99.90
21592;DHT22;10958;50.892;3.992;2023-08-31T06:35:12;15.60;99.90
21592;DHT22;10958;50.892;3.992;2023-08-31T06:37:39;16.30;99.90
21592;DHT22;10958;50.892;3.992;2023-08-31T06:40:09;16.90;99.90
21592;DHT22;10958;50.892;3.992;2023-08-31T06:42:38;17.20;99.90
21592;DHT22;10958;50.892;3.992;2023-08-31T06:45:07;17.60;99.90
21592;DHT22;10958;50.892;3.992;2023-08-31T06:47:33;17.90;99.90
21592;DHT22;10958;50.892;3.992;2023-08-31T06:49:59;18.00;99.90
21592;DHT22;10958;50.892;3.992;2023-08-31T06:52:28;18.20;99.90
21592;DHT22;10958;50.892;3.992;2023-08-31T06:54:54;18.40;99.90
21592;DHT22;10958;50.892;3.992;2023-08-31T06:57:22;18.50;99.90
21592;DHT22;10958;50.892;3.992;2023-08-31T06:59:50;18.60;99.90
21592;DHT22;10958;50.892;3.992;2023-08-31T07:02:21;18.80;99.90
21592;DHT22;10958;50.892;3.992;2023-08-31T07:04:52;19.20;99.90
21592;DHT22;10958;50.892;3.992;2023-08-31T07:07:18;19.10;99.90
21592;DHT22;10958;50.892;3.992;2023-08-31T07:09:45;19.20;99.90
21592;DHT22;10958;50.892;3.992;2023-08-31T07:12:11;19.50;99.90
21592;DHT22;10958;50.892;3.992;2023-08-31T07:14:37;19.80;99.90
21592;DHT22;10958;50.892;3.992;2023-08-31T07:17:03;19.80;99.90
21592;DHT22;10958;50.892;3.992;2023-08-31T07:19:31;19.90;99.90
21592;DHT22;10958;50.892;3.992;2023-08-31T07:21:57;19.90;99.90
21592;DHT22;10958;50.892;3.992;2023-08-31T07:24:23;20.10;99.90
21592;DHT22;10958;50.892;3.992;2023-08-31T07:26:50;20.60;99.90
21592;DHT22;10958;50.892;3.992;2023-08-31T07:29:18;20.70;99.90
21592;DHT22;10958;50.892;3.992;2023-08-31T07:31:43;20.50;99.90
21592;DHT22;10958;50.892;3.992;2023-08-31T07:34:09;20.60;99.90
21592;DHT22;10958;50.892;3.992;2023-08-31T07:36:35;21.10;99.90
21592;DHT22;10958;50.892;3.992;2023-08-31T07:39:01;21.60;99.90
21592;DHT22;10958;50.892;3.992;2023-08-31T07:41:29;22.10;99.90
21592;DHT22;10958;50.892;3.992;2023-08-31T07:43:55;21.90;99.90
21592;DHT22;10958;50.892;3.992;2023-08-31T07:46:21;21.90;99.90
21592;DHT22;10958;50.892;3.992;2023-08-31T07:48:46;21.40;99.90
21592;DHT22;10958;50.892;3.992;2023-08-31T07:51:16;21.30;99.90
21592;DHT22;10958;50.892;3.992;2023-08-31T07:53:45;21.60;99.90
21592;DHT22;10958;50.892;3.992;2023-08-31T07:56:10;21.40;99.90
21592;DHT22;10958;50.892;3.992;2023-08-31T07:58:38;21.40;99.90
21592;DHT22;10958;50.892;3.992;2023-08-31T08:01:04;21.60;99.90
21592;DHT22;10958;50.892;3.992;2023-08-31T08:03:30;22.50;99.90
21592;DHT22;10958;50.892;3.992;2023-08-31T08:05:56;22.90;99.90
21592;DHT22;10958;50.892;3.992;2023-08-31T08:08:22;23.20;99.90
21592;DHT22;10958;50.892;3.992;2023-08-31T08:10:52;23.40;99.90
21592;DHT22;10958;50.892;3.992;2023-08-31T08:13:18;23.20;99.90
21592;DHT22;10958;50.892;3.992;2023-08-31T08:15:45;23.00;99.90
21592;DHT22;10958;50.892;3.992;2023-08-31T08:18:13;23.10;99.90
21592;DHT22;10958;50.892;3.992;2023-08-31T08:20:39;23.50;99.90
21592;DHT22;10958;50.892;3.992;2023-08-31T08:23:05;23.90;99.90
21592;DHT22;10958;50.892;3.992;2023-08-31T08:25:32;23.30;99.90
21592;DHT22;10958;50.892;3.992;2023-08-31T08:28:01;23.40;99.90
21592;DHT22;10958;50.892;3.992;2023-08-31T08:30:29;23.50;99.90
21592;DHT22;10958;50.892;3.992;2023-08-31T08:32:55;24.10;99.90
21592;DHT22;10958;50.892;3.992;2023-08-31T08:35:21;24.60;99.90
21592;DHT22;10958;50.892;3.992;2023-08-31T08:37:46;24.40;99.90
21592;DHT22;10958;50.892;3.992;2023-08-31T08:40:12;24.80;99.90
21592;DHT22;10958;50.892;3.992;2023-08-31T08:42:42;25.10;99.90
21592;DHT22;10958;50.892;3.992;2023-08-31T08:45:15;24.90;99.90
21592;DHT22;10958;50.892;3.992;2023-08-31T08:47:44;25.10;99.90
21592;DHT22;10958;50.892;3.992;2023-08-31T08:50:12;25.40;99.90
21592;DHT22;10958;50.892;3.992;2023-08-31T08:52:39;25.10;99.90
21592;DHT22;10958;50.892;3.992;2023-08-31T08:55:06;25.00;99.90
21592;DHT22;10958;50.892;3.992;2023-08-31T08:57:35;25.00;99.90
21592;DHT22;10958;50.892;3.992;2023-08-31T09:00:01;24.60;99.90
21592;DHT22;10958;50.892;3.992;2023-08-31T09:02:28;24.40;99.90
21592;DHT22;10958;50.892;3.992;2023-08-31T09:04:53;24.40;99.90
21592;DHT22;10958;50.892;3.992;2023-08-31T09:07:23;24.20;99.90
21592;DHT22;10958;50.892;3.992;2023-08-31T09:09:50;23.90;99.90
21592;DHT22;10958;50.892;3.992;2023-08-31T09:12:23;23.90;99.90
21592;DHT22;10958;50.892;3.992;2023-08-31T09:15:03;23.60;99.90
21592;DHT22;10958;50.892;3.992;2023-08-31T09:17:40;23.20;99.90
21592;DHT22;10958;50.892;3.992;2023-08-31T09:20:07;22.80;99.90
21592;DHT22;10958;50.892;3.992;2023-08-31T09:22:34;22.00;99.90
21592;DHT22;10958;50.892;3.992;2023-08-31T09:25:00;22.20;99.90
21592;DHT22;10958;50.892;3.992;2023-08-31T09:27:26;22.70;99.90
21592;DHT22;10958;50.892;3.992;2023-08-31T09:29:54;23.10;99.90
21592;DHT22;10958;50.892;3.992;2023-08-31T09:32:21;23.30;99.90
21592;DHT22;10958;50.892;3.992;2023-08-31T09:34:47;23.90;99.90
21592;DHT22;10958;50.892;3.992;2023-08-31T09:37:16;24.40;99.90
21592;DHT22;10958;50.892;3.992;2023-08-31T09:39:44;24.20;99.90
21592;DHT22;10958;50.892;3.992;2023-08-31T09:42:10;24.00;99.90
21592;DHT22;10958;50.892;3.992;2023-08-31T09:44:41;24.20;99.90
21592;DHT22;10958;50.892;3.992;2023-08-31T09:47:08;24.60;99.90
21592;DHT22;10958;50.892;3.992;2023-08-31T09:49:34;24.80;99.90
21592;DHT22;10958;50.892;3.992;2023-08-31T09:52:03;25.20;99.90
21592;DHT22;10958;50.892;3.992;2023-08-31T09:54:30;24.70;99.90
21592;DHT22;10958;50.892;3.992;2023-08-31T09:56:59;24.30;99.90
21592;DHT22;10958;50.892;3.992;2023-08-31T09:59:27;24.30;99.90
21592;DHT22;10958;50.892;3.992;2023-08-31T10:03:36;24.40;99.90
21592;DHT22;10958;50.892;3.992;2023-08-31T10:06:04;24.30;99.90
21592;DHT22;10958;50.892;3.992;2023-08-31T10:08:30;24.50;99.90
21592;DHT22;10958;50.892;3.992;2023-08-31T10:11:03;25.10;99.90
21592;DHT22;10958;50.892;3.992;2023-08-31T10:13:32;24.90;99.90
21592;DHT22;10958;50.892;3.992;2023-08-31T10:16:04;24.90;99.90
21592;DHT22;10958;50.892;3.992;2023-08-31T10:18:30;24.30;99.90
21592;DHT22;10958;50.892;3.992;2023-08-31T10:20:56;24.10;99.90
21592;DHT22;10958;50.892;3.992;2023-08-31T10:23:22;23.90;99.90
21592;DHT22;10958;50.892;3.992;2023-08-31T10:28:24;23.40;99.90
21592;DHT22;10958;50.892;3.992;2023-08-31T10:31:07;23.50;99.90
21592;DHT22;10958;50.892;3.992;2023-08-31T10:33:34;23.00;99.90
21592;DHT22;10958;50.892;3.992;2023-08-31T10:36:00;22.50;99.90
21592;DHT22;10958;50.892;3.992;2023-08-31T10:38:28;22.40;99.90
21592;DHT22;10958;50.892;3.992;2023-08-31T10:43:43;22.50;99.90
21592;DHT22;10958;50.892;3.992;2023-08-31T10:46:31;22.20;99.90
21592;DHT22;10958;50.892;3.992;2023-08-31T10:51:36;22.50;99.90
21592;DHT22;10958;50.892;3.992;2023-08-31T10:59:53;23.00;99.90
21592;DHT22;10958;50.892;3.992;2023-08-31T11:02:35;23.20;99.90
21592;DHT22;10958;50.892;3.992;2023-08-31T11:05:14;23.20;99.90
21592;DHT22;10958;50.892;3.992;2023-08-31T11:07:47;23.30;99.90
21592;DHT22;10958;50.892;3.992;2023-08-31T11:10:18;23.40;99.90
21592;DHT22;10958;50.892;3.992;2023-08-31T11:12:49;23.30;99.90
21592;DHT22;10958;50.892;3.992;2023-08-31T11:15:17;23.20;99.90
21592;DHT22;10958;50.892;3.992;2023-08-31T11:17:44;23.10;99.90
21592;DHT22;10958;50.892;3.992;2023-08-31T11:20:14;22.70;99.90
21592;DHT22;10958;50.892;3.992;2023-08-31T11:22:46;22.30;99.90
21592;DHT22;10958;50.892;3.992;2023-08-31T11:25:13;22.50;99.90
21592;DHT22;10958;50.892;3.992;2023-08-31T11:27:39;22.20;99.90
21592;DHT22;10958;50.892;3.992;2023-08-31T11:30:13;22.20;99.90
21592;DHT22;10958;50.892;3.992;2023-08-31T11:32:49;22.30;99.90
21592;DHT22;10958;50.892;3.992;2023-08-31T11:35:18;22.30;99.90
21592;DHT22;10958;50.892;3.992;2023-08-31T11:37:52;22.10;99.90
21592;DHT22;10958;50.892;3.992;2023-08-31T11:40:18;22.00;99.90
21592;DHT22;10958;50.892;3.992;2023-08-31T11:42:44;21.70;99.90
21592;DHT22;10958;50.892;3.992;2023-08-31T11:45:11;21.40;99.90
21592;DHT22;10958;50.892;3.992;2023-08-31T11:47:38;21.60;99.90
21592;DHT22;10958;50.892;3.992;2023-08-31T11:50:10;21.60;99.90
21592;DHT22;10958;50.892;3.992;2023-08-31T11:52:37;21.50;99.90
21592;DHT22;10958;50.892;3.992;2023-08-31T11:55:03;21.50;99.90
21592;DHT22;10958;50.892;3.992;2023-08-31T11:57:28;21.40;99.90
21592;DHT22;10958;50.892;3.992;2023-08-31T11:59:55;21.70;99.90
21592;DHT22;10958;50.892;3.992;2023-08-31T12:02:24;22.00;99.90
21592;DHT22;10958;50.892;3.992;2023-08-31T12:04:49;21.80;99.90
21592;DHT22;10958;50.892;3.992;2023-08-31T12:07:21;22.00;99.90
21592;DHT22;10958;50.892;3.992;2023-08-31T12:09:47;21.70;99.90
21592;DHT22;10958;50.892;3.992;2023-08-31T12:12:19;21.80;99.90
21592;DHT22;10958;50.892;3.992;2023-08-31T12:14:45;21.70;99.90
21592;DHT22;10958;50.892;3.992;2023-08-31T12:17:11;21.70;99.90
21592;DHT22;10958;50.892;3.992;2023-08-31T12:19:37;21.80;99.90
21592;DHT22;10958;50.892;3.992;2023-08-31T12:22:05;21.70;99.90
21592;DHT22;10958;50.892;3.992;2023-08-31T12:24:41;21.60;99.90
21592;DHT22;10958;50.892;3.992;2023-08-31T12:27:10;21.80;99.90
21592;DHT22;10958;50.892;3.992;2023-08-31T12:29:36;21.80;99.90
21592;DHT22;10958;50.892;3.992;2023-08-31T12:32:04;21.70;99.90
21592;DHT22;10958;50.892;3.992;2023-08-31T12:34:30;21.80;99.90
21592;DHT22;10958;50.892;3.992;2023-08-31T12:36:59;21.80;99.90
21592;DHT22;10958;50.892;3.992;2023-08-31T12:39:26;22.20;99.90
21592;DHT22;10958;50.892;3.992;2023-08-31T12:41:54;22.20;99.90
21592;DHT22;10958;50.892;3.992;2023-08-31T12:44:20;22.10;99.90
21592;DHT22;10958;50.892;3.992;2023-08-31T12:46:46;22.00;99.90
21592;DHT22;10958;50.892;3.992;2023-08-31T12:49:11;22.00;99.90
21592;DHT22;10958;50.892;3.992;2023-08-31T12:51:39;22.30;99.90
21592;DHT22;10958;50.892;3.992;2023-08-31T12:54:05;22.00;99.90
21592;DHT22;10958;50.892;3.992;2023-08-31T12:56:31;22.10;99.90
21592;DHT22;10958;50.892;3.992;2023-08-31T12:58:56;21.90;99.90
21592;DHT22;10958;50.892;3.992;2023-08-31T13:01:22;21.90;99.90
21592;DHT22;10958;50.892;3.992;2023-08-31T13:03:51;22.00;99.90
21592;DHT22;10958;50.892;3.992;2023-08-31T13:06:20;22.10;99.90
21592;DHT22;10958;50.892;3.992;2023-08-31T13:08:46;22.00;99.90
21592;DHT22;10958;50.892;3.992;2023-08-31T13:11:12;22.10;99.90
21592;DHT22;10958;50.892;3.992;2023-08-31T13:13:41;22.10;99.90
21592;DHT22;10958;50.892;3.992;2023-08-31T13:16:06;22.20;99.90
21592;DHT22;10958;50.892;3.992;2023-08-31T13:18:35;22.00;99.90
21592;DHT22;10958;50.892;3.992;2023-08-31T13:21:00;21.90;99.90
21592;DHT22;10958;50.892;3.992;2023-08-31T13:23:28;21.90;99.90
21592;DHT22;10958;50.892;3.992;2023-08-31T13:25:54;22.00;99.90
21592;DHT22;10958;50.892;3.992;2023-08-31T13:28:21;22.10;99.90
21592;DHT22;10958;50.892;3.992;2023-08-31T13:30:47;22.30;99.90
21592;DHT22;10958;50.892;3.992;2023-08-31T13:33:13;22.20;99.90
21592;DHT22;10958;50.892;3.992;2023-08-31T13:35:39;22.10;99.90
21592;DHT22;10958;50.892;3.992;2023-08-31T13:38:04;22.10;99.90
21592;DHT22;10958;50.892;3.992;2023-08-31T13:40:30;22.20;99.90
21592;DHT22;10958;50.892;3.992;2023-08-31T13:42:58;21.90;99.90
21592;DHT22;10958;50.892;3.992;2023-08-31T13:45:29;22.00;99.90
21592;DHT22;10958;50.892;3.992;2023-08-31T13:47:56;22.00;99.90
21592;DHT22;10958;50.892;3.992;2023-08-31T13:50:24;22.00;99.90
21592;DHT22;10958;50.892;3.992;2023-08-31T13:52:50;21.70;99.90
21592;DHT22;10958;50.892;3.992;2023-08-31T13:55:16;21.60;99.90
21592;DHT22;10958;50.892;3.992;2023-08-31T13:57:42;21.70;99.90
21592;DHT22;10958;50.892;3.992;2023-08-31T14:00:09;21.60;99.90
21592;DHT22;10958;50.892;3.992;2023-08-31T14:02:38;21.60;99.90
21592;DHT22;10958;50.892;3.992;2023-08-31T14:05:06;21.60;99.90
21592;DHT22;10958;50.892;3.992;2023-08-31T14:07:36;21.60;99.90
21592;DHT22;10958;50.892;3.992;2023-08-31T14:10:05;21.70;99.90
21592;DHT22;10958;50.892;3.992;2023-08-31T14:12:31;21.50;99.90
21592;DHT22;10958;50.892;3.992;2023-08-31T14:14:59;21.70;99.90
21592;DHT22;10958;50.892;3.992;2023-08-31T14:17:29;21.40;99.90
21592;DHT22;10958;50.892;3.992;2023-08-31T14:20:00;21.20;99.90
21592;DHT22;10958;50.892;3.992;2023-08-31T14:22:27;21.40;99.90
21592;DHT22;10958;50.892;3.992;2023-08-31T14:24:53;21.50;99.90
21592;DHT22;10958;50.892;3.992;2023-08-31T14:27:21;21.40;99.90
21592;DHT22;10958;50.892;3.992;2023-08-31T14:29:48;21.30;99.90
21592;DHT22;10958;50.892;3.992;2023-08-31T14:32:14;21.20;99.90
21592;DHT22;10958;50.892;3.992;2023-08-31T14:34:40;21.10;99.90
21592;DHT22;10958;50.892;3.992;2023-08-31T14:37:07;21.20;99.90
21592;DHT22;10958;50.892;3.992;2023-08-31T14:39:33;21.00;99.90
21592;DHT22;10958;50.892;3.992;2023-08-31T14:41:59;21.10;99.90
21592;DHT22;10958;50.892;3.992;2023-08-31T14:44:25;21.00;99.90
21592;DHT22;10958;50.892;3.992;2023-08-31T14:46:52;21.10;99.90
21592;DHT22;10958;50.892;3.992;2023-08-31T14:49:22;21.20;99.90
21592;DHT22;10958;50.892;3.992;2023-08-31T14:51:50;21.40;99.90
21592;DHT22;10958;50.892;3.992;2023-08-31T14:54:16;21.50;99.90
21592;DHT22;10958;50.892;3.992;2023-08-31T14:59:22;21.20;99.90
21592;DHT22;10958;50.892;3.992;2023-08-31T15:01:47;21.20;99.90
21592;DHT22;10958;50.892;3.992;2023-08-31T15:04:13;21.30;99.90
21592;DHT22;10958;50.892;3.992;2023-08-31T15:06:39;21.10;99.90
21592;DHT22;10958;50.892;3.992;2023-08-31T15:09:24;21.10;99.90
21592;DHT22;10958;50.892;3.992;2023-08-31T15:14:30;20.90;99.90
21592;DHT22;10958;50.892;3.992;2023-08-31T15:17:00;20.70;99.90
21592;DHT22;10958;50.892;3.992;2023-08-31T15:19:28;20.70;99.90
21592;DHT22;10958;50.892;3.992;2023-08-31T15:21:54;20.70;99.90
21592;DHT22;10958;50.892;3.992;2023-08-31T15:24:22;20.70;99.90
21592;DHT22;10958;50.892;3.992;2023-08-31T15:26:47;20.80;99.90
21592;DHT22;10958;50.892;3.992;2023-08-31T15:29:13;21.00;99.90
21592;DHT22;10958;50.892;3.992;2023-08-31T15:31:43;20.90;99.90
21592;DHT22;10958;50.892;3.992;2023-08-31T15:34:12;20.60;99.90
21592;DHT22;10958;50.892;3.992;2023-08-31T15:36:38;20.40;99.90
21592;DHT22;10958;50.892;3.992;2023-08-31T15:39:06;20.30;99.90
21592;DHT22;10958;50.892;3.992;2023-08-31T15:41:33;20.20;99.90
21592;DHT22;10958;50.892;3.992;2023-08-31T15:44:02;20.20;99.90
21592;DHT22;10958;50.892;3.992;2023-08-31T15:46:29;20.10;99.90
21592;DHT22;10958;50.892;3.992;2023-08-31T15:48:55;20.10;99.90
21592;DHT22;10958;50.892;3.992;2023-08-31T15:51:20;19.90;99.90
21592;DHT22;10958;50.892;3.992;2023-08-31T15:53:46;19.70;99.90
21592;DHT22;10958;50.892;3.992;2023-08-31T15:56:14;19.70;99.90
21592;DHT22;10958;50.892;3.992;2023-08-31T15:58:40;19.70;99.90
21592;DHT22;10958;50.892;3.992;2023-08-31T16:01:10;19.70;99.90
21592;DHT22;10958;50.892;3.992;2023-08-31T16:03:35;19.70;99.90